Time;durP1;ratioP1;P1;durP2;ratioP2;P2;SDS_P1;SDS_P2;PMS_P1;PMS_P2;Temp;Humidity;BMP_temperature;BMP_pressure;BME280_temperature;BME280_humidity;BME280_pressure;Samples;Min_cycle;Max_cycle;Signal;HPM_P1;HPM_P2
2022/09/07 00:00:32;;;;;;;7.43;4.72;;;;;;;17.49;84.25;101227.59;5029161;28;20025;-66
2022/09/07 00:02:57;;;;;;;7.65;4.00;;;;;;;17.25;84.31;101213.41;5026808;28;20116;-67
2022/09/07 00:05:23;;;;;;;6.50;4.22;;;;;;;17.11;85.01;101211.09;5026342;28;20128;-66
2022/09/07 00:07:48;;;;;;;6.85;3.80;;;;;;;17.01;85.53;101211.97;5028625;28;20046;-67
2022/09/07 00:10:14;;;;;;;4.85;3.70;;;;;;;17.02;84.98;101202.75;5027859;28;20021;-67
2022/09/07 00:12:40;;;;;;;6.20;4.20;;;;;;;17.00;85.94;101193.75;5012314;28;20060;-66
2022/09/07 00:15:08;;;;;;;5.70;4.10;;;;;;;17.01;85.58;101189.97;5018534;28;20045;-67
2022/09/07 00:17:34;;;;;;;5.45;3.75;;;;;;;16.99;85.16;101178.28;5031212;28;20033;-67
2022/09/07 00:20:00;;;;;;;6.28;3.80;;;;;;;16.92;85.73;101177.09;5009331;28;20045;-66
2022/09/07 00:22:26;;;;;;;8.23;3.97;;;;;;;16.81;85.63;101169.00;5028271;28;20114;-67
2022/09/07 00:24:51;;;;;;;6.07;3.30;;;;;;;16.71;86.67;101184.59;5026891;28;20033;-66
2022/09/07 00:27:16;;;;;;;6.55;3.97;;;;;;;16.63;86.62;101177.06;5028131;28;20030;-67
2022/09/07 00:29:42;;;;;;;6.07;3.88;;;;;;;16.59;86.60;101183.84;5028117;28;20041;-67
2022/09/07 00:32:07;;;;;;;6.32;3.65;;;;;;;16.54;86.79;101181.50;5025699;28;20038;-67
2022/09/07 00:34:33;;;;;;;7.47;3.70;;;;;;;16.53;86.37;101176.16;5010161;28;20042;-67
2022/09/07 00:36:58;;;;;;;7.60;4.20;;;;;;;16.54;86.59;101169.66;5027532;28;20045;-66
2022/09/07 00:39:23;;;;;;;8.20;4.20;;;;;;;16.59;85.62;101172.84;5025560;28;20146;-66
2022/09/07 00:41:48;;;;;;;7.55;4.53;;;;;;;16.65;86.33;101179.69;5027922;28;20099;-68
2022/09/07 00:44:42;;;;;;;7.03;3.95;;;;;;;16.71;85.38;101179.09;5027368;28;20048;-66
2022/09/07 00:47:31;;;;;;;6.95;4.18;;;;;;;16.75;84.94;101164.97;5026044;28;20095;-66
2022/09/07 00:50:04;;;;;;;7.57;4.10;;;;;;;16.78;85.45;101158.28;5028578;28;20464;-66
2022/09/07 00:52:31;;;;;;;7.05;4.28;;;;;;;16.65;86.07;101153.06;5045392;28;20042;-66
2022/09/07 00:55:00;;;;;;;8.07;4.30;;;;;;;16.59;86.23;101139.88;5026583;28;20061;-66
2022/09/07 00:57:29;;;;;;;9.90;4.07;;;;;;;16.52;86.92;101142.34;5042720;28;20115;-69
2022/09/07 00:59:56;;;;;;;6.78;3.85;;;;;;;16.40;87.43;101129.75;5030235;28;20048;-66
2022/09/07 01:02:22;;;;;;;9.77;4.40;;;;;;;16.35;87.86;101126.56;5024946;28;20029;-66
2022/09/07 01:04:52;;;;;;;5.47;3.95;;;;;;;16.33;87.22;101134.94;5026954;28;20041;-66
2022/09/07 01:07:18;;;;;;;7.32;4.15;;;;;;;16.31;86.85;101136.06;5027227;28;20045;-67
2022/09/07 01:09:46;;;;;;;6.60;4.30;;;;;;;16.25;87.68;101140.25;5025196;28;20497;-66
2022/09/07 01:12:11;;;;;;;6.55;4.47;;;;;;;16.19;87.93;101138.09;5025988;28;20140;-67
2022/09/07 01:14:41;;;;;;;5.53;3.97;;;;;;;16.15;88.54;101141.25;5026904;28;20033;-66
2022/09/07 01:17:29;;;;;;;5.55;4.53;;;;;;;16.13;87.86;101137.75;5026693;28;20105;-66
2022/09/07 01:20:29;;;;;;;5.55;3.95;;;;;;;16.11;88.02;101129.69;5026534;28;20041;-67
2022/09/07 01:23:52;;;;;;;7.57;4.32;;;;;;;16.07;87.75;101120.84;5018549;28;20147;-67
2022/09/07 01:26:26;;;;;;;4.55;3.30;;;;;;;16.08;86.83;101141.78;5030981;28;20045;-67
2022/09/07 01:29:01;;;;;;;5.07;3.67;;;;;;;16.12;86.71;101142.38;5046666;28;20485;-66
2022/09/07 01:32:00;;;;;;;9.88;3.85;;;;;;;16.20;86.18;101153.53;5033188;28;20045;-66
2022/09/07 01:34:25;;;;;;;7.88;3.78;;;;;;;16.19;87.26;101161.94;5022694;28;20045;-67
2022/09/07 01:37:03;;;;;;;6.75;3.72;;;;;;;16.16;88.08;101152.09;5024554;28;20091;-67
2022/09/07 01:39:46;;;;;;;8.60;4.35;;;;;;;16.12;88.15;101136.91;5007141;28;20403;-67
2022/09/07 01:42:16;;;;;;;5.38;4.05;;;;;;;16.11;88.46;101131.56;5015756;28;20037;-67
2022/09/07 01:44:51;;;;;;;7.78;4.22;;;;;;;16.14;88.45;101134.91;5027135;28;20124;-67
2022/09/07 01:47:21;;;;;;;8.50;4.55;;;;;;;16.15;88.14;101135.75;5024681;28;20065;-68
2022/09/07 01:49:53;;;;;;;6.35;4.10;;;;;;;16.10;88.78;101133.44;5026946;28;20048;-67
2022/09/07 01:52:33;;;;;;;6.07;3.38;;;;;;;16.12;87.45;101131.41;5019408;28;20473;-66
2022/09/07 01:55:23;;;;;;;5.10;3.63;;;;;;;16.17;86.32;101134.59;5029741;28;20059;-66
2022/09/07 01:58:07;;;;;;;4.57;3.53;;;;;;;16.22;86.56;101136.94;5031014;28;20405;-66
2022/09/07 02:00:35;;;;;;;5.88;3.75;;;;;;;16.22;86.84;101142.41;5031034;28;20053;-67
2022/09/07 02:03:17;;;;;;;5.82;3.95;;;;;;;16.23;86.55;101149.66;5022831;28;20064;-67
2022/09/07 02:05:57;;;;;;;6.60;4.00;;;;;;;16.28;86.63;101142.75;5011952;28;20056;-66
2022/09/07 02:08:47;;;;;;;7.65;3.45;;;;;;;16.32;86.39;101154.31;5010543;28;20055;-67
2022/09/07 02:11:18;;;;;;;8.20;5.00;;;;;;;16.29;87.23;101140.84;5010565;28;20036;-67
2022/09/07 02:13:55;;;;;;;5.47;3.85;;;;;;;16.26;86.76;101139.25;5010915;28;20045;-66
2022/09/07 02:16:26;;;;;;;5.10;4.00;;;;;;;16.23;86.76;101138.69;5026808;28;20045;-67
2022/09/07 02:19:06;;;;;;;8.15;4.13;;;;;;;16.16;87.67;101134.75;5028335;28;20489;-67
2022/09/07 02:21:42;;;;;;;8.30;4.07;;;;;;;16.16;86.65;101138.34;5030769;28;20049;-66
2022/09/07 02:24:27;;;;;;;5.45;4.00;;;;;;;16.20;85.81;101130.72;5029318;28;20049;-67
2022/09/07 02:26:54;;;;;;;6.97;3.50;;;;;;;16.18;86.45;101121.75;5030565;28;20537;-66
2022/09/07 02:29:20;;;;;;;5.85;3.45;;;;;;;16.18;85.39;101132.72;5029901;28;20037;-66
2022/09/07 02:31:47;;;;;;;6.10;3.90;;;;;;;16.19;85.27;101131.72;5030303;28;20040;-67
2022/09/07 02:34:12;;;;;;;4.95;3.53;;;;;;;16.17;85.85;101131.84;5028679;28;20029;-67
2022/09/07 02:36:46;;;;;;;5.88;3.83;;;;;;;16.16;85.43;101123.78;5016965;28;20532;-66
2022/09/07 02:39:11;;;;;;;7.63;3.50;;;;;;;16.15;85.26;101133.03;5008247;28;20038;-67
2022/09/07 02:41:42;;;;;;;7.28;3.80;;;;;;;16.13;84.55;101144.13;5025613;28;20041;-66
2022/09/07 02:44:31;;;;;;;5.05;3.53;;;;;;;16.12;84.03;101147.00;5010372;28;20053;-67
2022/09/07 02:47:26;;;;;;;7.78;4.00;;;;;;;16.10;83.95;101146.28;5029195;28;20342;-67
2022/09/07 02:50:20;;;;;;;7.57;3.50;;;;;;;16.02;83.97;101136.88;5029301;28;20477;-66
2022/09/07 02:53:15;;;;;;;7.00;3.72;;;;;;;15.98;84.18;101137.28;5021677;28;20039;-66
2022/09/07 02:56:01;;;;;;;5.18;3.50;;;;;;;15.97;84.72;101143.78;5029243;28;20045;-67
2022/09/07 02:58:32;;;;;;;5.53;4.18;;;;;;;15.87;85.32;101126.44;5011265;28;20111;-67
2022/09/07 03:01:08;;;;;;;4.90;3.92;;;;;;;15.76;85.63;101133.75;5025692;28;20037;-66
2022/09/07 03:03:51;;;;;;;4.72;3.55;;;;;;;15.75;84.99;101140.22;5030882;28;20053;-66
2022/09/07 03:06:30;;;;;;;5.28;3.90;;;;;;;15.75;84.83;101153.06;5038269;28;20084;-67
2022/09/07 03:09:00;;;;;;;6.10;3.53;;;;;;;15.72;84.80;101150.63;5047951;28;20129;-67
2022/09/07 03:11:27;;;;;;;4.63;3.20;;;;;;;15.71;84.96;101146.13;5029625;28;20477;-67
2022/09/07 03:14:10;;;;;;;5.32;2.97;;;;;;;15.75;84.41;101144.84;5029303;28;20116;-67
2022/09/07 03:16:35;;;;;;;6.68;3.20;;;;;;;15.76;84.66;101152.06;5028300;28;20033;-67
2022/09/07 03:19:01;;;;;;;6.80;3.65;;;;;;;15.80;85.30;101132.44;5026876;28;20420;-67
2022/09/07 03:21:26;;;;;;;7.78;3.58;;;;;;;15.86;85.54;101138.41;5029140;28;20123;-67
2022/09/07 03:23:51;;;;;;;6.43;3.17;;;;;;;15.90;85.17;101139.84;5028380;28;20033;-66
2022/09/07 03:26:26;;;;;;;5.60;3.97;;;;;;;15.94;85.16;101139.44;5028989;28;20037;-67
2022/09/07 03:28:52;;;;;;;11.32;4.88;;;;;;;15.98;85.13;101129.06;5027707;28;20033;-67
2022/09/07 03:31:17;;;;;;;10.20;4.50;;;;;;;15.99;85.93;101128.94;5028881;28;20048;-66
2022/09/07 03:33:42;;;;;;;9.10;4.30;;;;;;;16.00;85.96;101133.41;5026733;28;20132;-67
2022/09/07 03:36:08;;;;;;;6.60;3.95;;;;;;;16.01;85.48;101131.53;5020244;28;20026;-67
2022/09/07 03:38:33;;;;;;;6.05;4.30;;;;;;;16.05;85.37;101138.47;5009766;28;20037;-68
2022/09/07 03:41:04;;;;;;;9.30;4.40;;;;;;;16.07;85.72;101131.81;5009184;28;20495;-67
2022/09/07 03:43:31;;;;;;;9.45;4.15;;;;;;;16.07;85.33;101122.72;5012081;28;20044;-67
2022/09/07 03:46:02;;;;;;;8.60;4.22;;;;;;;16.06;85.23;101129.22;5028997;28;20052;-67
2022/09/07 03:48:32;;;;;;;13.85;4.97;;;;;;;16.08;85.17;101141.78;5027058;28;20037;-67
2022/09/07 03:51:00;;;;;;;11.43;4.90;;;;;;;16.13;85.76;101137.75;5028370;28;20069;-66
2022/09/07 03:53:25;;;;;;;12.32;4.72;;;;;;;16.12;85.71;101149.75;5027730;28;20072;-67
2022/09/07 03:55:56;;;;;;;11.13;4.82;;;;;;;16.11;85.40;101135.16;5008031;28;20528;-66
2022/09/07 03:58:21;;;;;;;9.02;5.43;;;;;;;16.10;85.62;101125.19;5009396;28;20501;-68
2022/09/07 04:00:46;;;;;;;6.32;5.00;;;;;;;16.08;85.86;101117.09;5009122;28;20124;-67
2022/09/07 04:03:11;;;;;;;7.70;4.93;;;;;;;16.04;85.93;101112.03;5009888;28;20077;-67
2022/09/07 04:05:37;;;;;;;8.27;4.47;;;;;;;16.01;86.30;101115.06;5013203;28;20057;-68
2022/09/07 04:08:02;;;;;;;13.07;4.70;;;;;;;16.03;85.83;101113.91;5029264;28;20041;-67
2022/09/07 04:10:27;;;;;;;16.23;5.30;;;;;;;16.05;86.32;101109.16;5026347;28;20051;-66
2022/09/07 04:12:53;;;;;;;8.95;4.63;;;;;;;16.03;86.22;101096.56;5010051;28;20081;-67
2022/09/07 04:15:18;;;;;;;8.88;4.65;;;;;;;16.02;86.10;101092.97;5020155;28;20037;-67
2022/09/07 04:17:43;;;;;;;7.03;5.13;;;;;;;15.98;86.65;101088.75;5022734;28;20084;-66
2022/09/07 04:20:09;;;;;;;13.13;4.93;;;;;;;15.92;86.93;101094.81;5008483;28;20037;-67
2022/09/07 04:22:34;;;;;;;8.38;4.28;;;;;;;15.89;86.71;101086.84;5036225;28;20564;-70
2022/09/07 04:24:59;;;;;;;15.95;5.45;;;;;;;15.91;86.42;101084.84;5037245;28;20501;-67
2022/09/07 04:27:25;;;;;;;8.48;4.60;;;;;;;15.95;85.57;101082.69;5042842;28;20067;-66
2022/09/07 04:29:50;;;;;;;8.45;4.63;;;;;;;15.97;86.01;101095.25;5032259;28;20040;-67
2022/09/07 04:32:15;;;;;;;8.88;4.97;;;;;;;15.94;86.18;101090.03;5026502;28;20026;-67
2022/09/07 04:34:41;;;;;;;8.02;5.25;;;;;;;15.94;86.30;101101.00;5027554;28;20053;-67
2022/09/07 04:37:06;;;;;;;9.38;5.28;;;;;;;15.94;86.44;101119.34;5027519;28;20505;-66
2022/09/07 04:39:31;;;;;;;7.35;5.28;;;;;;;15.92;86.22;101114.03;5027785;28;20098;-67
2022/09/07 04:41:57;;;;;;;10.77;5.57;;;;;;;15.91;86.08;101106.81;5032507;28;20045;-68
2022/09/07 04:44:22;;;;;;;12.50;6.20;;;;;;;15.89;85.64;101102.44;5031465;28;20526;-68
2022/09/07 04:46:47;;;;;;;6.35;5.63;;;;;;;15.88;85.81;101111.69;5023386;28;20179;-68
2022/09/07 04:49:13;;;;;;;7.93;5.25;;;;;;;15.85;85.86;101111.97;5024750;28;20048;-68
2022/09/07 04:51:41;;;;;;;7.93;6.45;;;;;;;15.81;85.37;101108.66;5023973;28;20037;-67
2022/09/07 04:54:08;;;;;;;9.40;6.07;;;;;;;15.79;85.57;101108.78;5020634;28;20109;-68
2022/09/07 04:56:33;;;;;;;6.88;5.22;;;;;;;15.77;85.67;101105.31;5024108;28;20041;-66
2022/09/07 04:59:00;;;;;;;11.05;6.22;;;;;;;15.69;86.32;101091.41;5021427;28;20113;-67
2022/09/07 05:01:26;;;;;;;8.55;6.10;;;;;;;15.68;85.80;101099.78;5023760;28;20036;-66
2022/09/07 05:03:51;;;;;;;9.85;5.25;;;;;;;15.66;85.48;101104.53;5022476;28;20034;-67
2022/09/07 05:06:19;;;;;;;9.38;5.95;;;;;;;15.67;85.48;101109.03;5025341;28;20120;-67
2022/09/07 05:08:46;;;;;;;7.75;5.88;;;;;;;15.69;86.12;101102.38;5025033;28;20099;-67
2022/09/07 05:11:13;;;;;;;8.88;5.80;;;;;;;15.68;85.87;101099.78;5024004;28;20040;-68
2022/09/07 05:13:39;;;;;;;10.90;6.68;;;;;;;15.68;86.77;101092.41;5005764;28;20037;-67
2022/09/07 05:16:14;;;;;;;8.82;6.45;;;;;;;15.73;86.67;101089.25;5026005;28;20030;-67
2022/09/07 05:18:40;;;;;;;9.05;5.63;;;;;;;15.74;86.97;101085.50;5023358;28;20046;-67
2022/09/07 05:21:07;;;;;;;9.57;6.05;;;;;;;15.77;86.28;101093.47;5025817;28;20084;-67
2022/09/07 05:23:33;;;;;;;8.95;5.65;;;;;;;15.82;86.17;101099.41;5026347;28;20039;-66
2022/09/07 05:25:58;;;;;;;11.95;6.90;;;;;;;15.82;86.58;101102.16;5026243;28;20037;-67
2022/09/07 05:28:24;;;;;;;12.10;6.10;;;;;;;15.82;85.82;101100.28;5024485;28;20881;-67
2022/09/07 05:30:49;;;;;;;12.88;6.18;;;;;;;15.85;86.36;101106.47;5026303;28;20029;-66
2022/09/07 05:33:15;;;;;;;17.25;6.47;;;;;;;15.85;86.22;101096.38;5023570;28;20040;-67
2022/09/07 05:35:40;;;;;;;12.07;6.25;;;;;;;15.85;86.41;101100.97;5025528;28;20033;-67
2022/09/07 05:38:06;;;;;;;14.27;6.45;;;;;;;15.82;86.99;101104.91;5026534;28;20448;-66
2022/09/07 05:40:32;;;;;;;11.15;6.40;;;;;;;15.80;86.96;101106.88;5022056;28;21585;-67
2022/09/07 05:42:57;;;;;;;9.30;5.97;;;;;;;15.81;86.94;101109.50;5023228;28;20068;-67
2022/09/07 05:45:23;;;;;;;12.00;6.03;;;;;;;15.83;86.25;101109.38;5026170;28;20124;-67
2022/09/07 05:47:49;;;;;;;9.45;6.53;;;;;;;15.86;86.11;101119.22;5024962;28;20159;-67
2022/09/07 05:50:16;;;;;;;10.85;6.13;;;;;;;15.89;86.11;101116.16;5025457;28;20036;-67
2022/09/07 05:52:41;;;;;;;10.15;6.57;;;;;;;15.89;86.40;101116.16;5025903;28;20365;-68
2022/09/07 05:55:07;;;;;;;9.02;6.30;;;;;;;15.87;87.19;101115.44;5024727;28;20083;-68
2022/09/07 05:57:32;;;;;;;9.13;7.13;;;;;;;15.85;87.92;101115.56;5026904;28;20036;-66
2022/09/07 05:59:58;;;;;;;9.10;6.60;;;;;;;15.90;87.09;101120.63;5026105;28;20487;-66
2022/09/07 06:02:23;;;;;;;9.25;6.28;;;;;;;15.97;87.02;101122.69;5024323;28;20010;-68
2022/09/07 06:04:49;;;;;;;9.65;6.18;;;;;;;16.02;86.45;101125.03;5025414;28;20045;-67
2022/09/07 06:07:15;;;;;;;12.52;6.18;;;;;;;16.05;86.47;101122.00;5025687;28;20052;-66
2022/09/07 06:09:40;;;;;;;15.30;6.90;;;;;;;16.10;87.28;101133.44;5025180;28;20046;-66
2022/09/07 06:12:06;;;;;;;11.60;6.55;;;;;;;16.13;87.00;101129.53;5015021;28;20072;-69
2022/09/07 06:14:32;;;;;;;12.35;6.40;;;;;;;16.16;87.32;101130.13;5008038;28;20041;-66
2022/09/07 06:16:57;;;;;;;11.95;6.53;;;;;;;16.17;87.48;101133.72;5009072;28;20441;-68
2022/09/07 06:19:23;;;;;;;10.18;7.57;;;;;;;16.20;87.58;101130.72;5025728;28;20064;-68
2022/09/07 06:21:48;;;;;;;12.48;7.50;;;;;;;16.21;87.46;101132.44;5026315;28;20087;-68
2022/09/07 06:24:13;;;;;;;15.30;7.10;;;;;;;16.24;87.78;101130.28;5026151;28;20462;-67
2022/09/07 06:26:39;;;;;;;11.15;6.72;;;;;;;16.28;87.54;101136.38;5025027;28;20041;-66
2022/09/07 06:29:04;;;;;;;13.32;7.13;;;;;;;16.31;87.14;101134.19;5025153;28;20038;-70
2022/09/07 06:31:30;;;;;;;13.85;6.97;;;;;;;16.33;87.24;101147.81;5025669;28;20034;-66
2022/09/07 06:33:56;;;;;;;10.52;7.78;;;;;;;16.37;87.20;101141.03;5023366;28;20099;-67
2022/09/07 06:36:26;;;;;;;13.75;8.43;;;;;;;16.46;86.93;101144.78;5026812;28;20044;-68
2022/09/07 06:38:51;;;;;;;13.82;8.43;;;;;;;16.56;86.73;101138.31;5028344;28;20072;-67
2022/09/07 06:41:21;;;;;;;16.10;8.35;;;;;;;16.66;86.71;101153.94;5029401;28;20064;-68
2022/09/07 06:43:47;;;;;;;17.42;10.57;;;;;;;16.73;88.14;101150.47;5028787;28;20083;-67
2022/09/07 06:46:13;;;;;;;18.65;12.38;;;;;;;16.81;87.58;101150.63;5029693;28;20029;-66
2022/09/07 06:48:39;;;;;;;23.90;13.95;;;;;;;16.85;88.45;101151.22;5023968;28;20061;-67
2022/09/07 06:51:08;;;;;;;18.30;13.30;;;;;;;16.89;86.94;101158.19;5024718;28;20076;-67
2022/09/07 06:53:35;;;;;;;22.08;14.05;;;;;;;16.91;88.20;101152.53;5027391;28;20493;-67
2022/09/07 06:56:04;;;;;;;22.58;14.68;;;;;;;16.93;88.71;101151.38;5030444;28;20511;-67
2022/09/07 06:58:30;;;;;;;27.88;17.27;;;;;;;17.00;88.34;101152.53;5025422;28;20063;-66
2022/09/07 07:00:55;;;;;;;32.38;19.67;;;;;;;17.14;88.63;101153.09;5010288;28;20088;-66
2022/09/07 07:03:21;;;;;;;27.95;19.25;;;;;;;17.19;88.19;101146.13;5019370;28;20119;-67
2022/09/07 07:05:54;;;;;;;30.83;19.52;;;;;;;17.21;87.23;101146.88;5025377;28;20030;-66
2022/09/07 07:08:22;;;;;;;30.92;19.45;;;;;;;17.24;86.73;101148.44;5026890;28;20069;-69
2022/09/07 07:10:47;;;;;;;35.97;20.95;;;;;;;17.23;87.61;101150.31;5029600;28;20507;-66
2022/09/07 07:13:13;;;;;;;33.00;20.17;;;;;;;17.25;87.95;101150.16;5029147;28;20041;-68
2022/09/07 07:15:38;;;;;;;33.17;20.38;;;;;;;17.37;86.90;101162.75;5027560;28;20037;-67
2022/09/07 07:18:04;;;;;;;35.42;22.23;;;;;;;17.48;87.74;101154.31;5027481;28;20655;-66
2022/09/07 07:20:30;;;;;;;32.58;22.05;;;;;;;17.58;86.95;101159.84;5027539;28;20114;-68
2022/09/07 07:22:55;;;;;;;31.60;22.70;;;;;;;17.62;87.96;101143.88;5027029;28;20036;-67
2022/09/07 07:25:21;;;;;;;35.88;23.23;;;;;;;17.68;88.54;101151.53;5025597;28;20109;-66
2022/09/07 07:27:47;;;;;;;36.58;22.48;;;;;;;17.77;87.25;101158.94;5028532;28;20516;-67
2022/09/07 07:30:13;;;;;;;35.53;23.75;;;;;;;17.76;87.68;101160.78;5028191;28;20064;-67
2022/09/07 07:32:40;;;;;;;33.80;23.20;;;;;;;17.79;86.61;101162.38;5026304;28;20747;-66
2022/09/07 07:35:07;;;;;;;39.28;24.00;;;;;;;17.77;87.66;101168.06;5027677;28;20048;-69
2022/09/07 07:37:33;;;;;;;35.70;24.95;;;;;;;17.81;89.00;101171.34;5028380;28;20485;-66
2022/09/07 07:39:59;;;;;;;36.42;23.85;;;;;;;17.94;87.36;101166.38;5025623;28;20132;-66
2022/09/07 07:42:25;;;;;;;37.47;24.65;;;;;;;18.01;87.54;101174.91;5009527;28;20559;-67
2022/09/07 07:44:50;;;;;;;40.53;23.15;;;;;;;18.07;85.95;101174.31;5019151;28;20429;-67
2022/09/07 07:47:15;;;;;;;37.75;23.15;;;;;;;18.10;86.19;101174.88;5025195;28;20094;-67
2022/09/07 07:49:41;;;;;;;31.67;22.40;;;;;;;18.15;86.15;101173.56;5025948;28;20094;-67
2022/09/07 07:52:06;;;;;;;30.00;22.25;;;;;;;18.19;84.80;101173.09;5027329;28;20041;-67
2022/09/07 07:54:35;;;;;;;32.67;22.45;;;;;;;18.32;86.21;101175.47;5026633;28;20029;-69
2022/09/07 07:57:01;;;;;;;30.88;20.95;;;;;;;18.37;86.37;101173.13;5026779;28;20592;-67
2022/09/07 07:59:26;;;;;;;28.75;20.40;;;;;;;18.44;84.79;101192.69;5025949;28;20009;-66
2022/09/07 08:01:51;;;;;;;28.40;20.20;;;;;;;18.54;84.99;101193.47;5026051;28;20037;-66
2022/09/07 08:04:17;;;;;;;28.02;20.17;;;;;;;18.60;85.44;101190.09;5025010;28;20057;-67
2022/09/07 08:06:42;;;;;;;30.92;20.73;;;;;;;18.63;85.22;101198.06;5022704;28;20520;-67
2022/09/07 08:09:08;;;;;;;27.45;18.88;;;;;;;18.58;84.15;101187.50;5024884;28;20520;-67
2022/09/07 08:11:34;;;;;;;29.58;19.27;;;;;;;18.55;84.11;101189.69;5027000;28;20074;-67
2022/09/07 08:14:01;;;;;;;21.70;17.02;;;;;;;18.63;83.26;101192.56;5027783;28;20041;-66
2022/09/07 08:16:26;;;;;;;25.65;18.33;;;;;;;18.63;82.77;101194.44;5024949;28;20079;-66
2022/09/07 08:18:52;;;;;;;27.23;19.08;;;;;;;18.67;82.56;101201.38;5022958;28;20029;-66
2022/09/07 08:21:17;;;;;;;25.42;17.98;;;;;;;18.68;83.49;101200.34;5026679;28;20026;-66
2022/09/07 08:23:43;;;;;;;26.23;19.85;;;;;;;18.71;83.44;101200.09;5009260;28;20029;-67
2022/09/07 08:26:09;;;;;;;23.30;18.35;;;;;;;18.77;83.69;101197.56;5026927;28;20037;-68
2022/09/07 08:28:37;;;;;;;24.58;16.63;;;;;;;18.89;82.78;101200.97;5027424;28;20060;-66
2022/09/07 08:31:05;;;;;;;24.55;17.42;;;;;;;18.96;82.25;101204.81;5019517;28;20025;-68
2022/09/07 08:33:30;;;;;;;25.63;17.15;;;;;;;19.06;82.63;101200.09;5017436;28;20176;-67
2022/09/07 08:36:01;;;;;;;22.08;17.45;;;;;;;19.18;82.64;101209.00;5014486;28;20120;-68
2022/09/07 08:38:32;;;;;;;24.02;17.73;;;;;;;19.22;82.16;101201.28;5008407;28;20033;-67
2022/09/07 08:40:58;;;;;;;24.65;18.50;;;;;;;19.21;83.67;101210.56;5025725;28;20049;-68
2022/09/07 08:43:51;;;;;;;26.13;19.13;;;;;;;19.22;82.22;101207.69;5028094;28;20037;-68
2022/09/07 08:46:31;;;;;;;26.85;18.20;;;;;;;19.19;81.33;101212.63;5025161;28;20045;-67
2022/09/07 08:48:58;;;;;;;26.05;18.58;;;;;;;19.25;83.52;101210.09;5020579;28;20042;-67
2022/09/07 08:51:48;;;;;;;27.25;19.00;;;;;;;19.34;82.21;101213.78;5024963;28;20108;-68
2022/09/07 08:54:15;;;;;;;26.60;17.83;;;;;;;19.53;81.12;101212.75;5006436;28;20038;-67
2022/09/07 08:56:50;;;;;;;33.30;18.08;;;;;;;19.74;81.21;101215.19;5026434;28;20103;-67
2022/09/07 08:59:22;;;;;;;23.13;16.42;;;;;;;19.93;79.56;101209.44;5008634;28;20486;-67
2022/09/07 09:01:48;;;;;;;20.45;15.57;;;;;;;20.03;77.80;101207.44;5006950;28;20037;-67
2022/09/07 09:04:25;;;;;;;24.50;15.45;;;;;;;20.21;78.59;101206.50;5024170;28;20095;-67
2022/09/07 09:07:02;;;;;;;23.70;15.88;;;;;;;20.47;78.67;101209.19;5026912;28;20033;-67
2022/09/07 09:10:00;;;;;;;19.20;14.15;;;;;;;20.74;77.42;101205.34;5027206;28;20060;-70
2022/09/07 09:13:00;;;;;;;17.80;13.70;;;;;;;20.82;76.59;101202.59;5027817;28;20083;-68
2022/09/07 09:15:59;;;;;;;19.33;12.25;;;;;;;20.91;76.54;101215.41;5012090;28;20171;-67
2022/09/07 09:18:30;;;;;;;16.63;12.32;;;;;;;21.02;75.00;101215.09;5014326;28;20169;-68
2022/09/07 09:20:56;;;;;;;20.05;13.63;;;;;;;21.06;74.12;101210.09;5021803;28;20398;-67
2022/09/07 09:23:29;;;;;;;19.23;12.10;;;;;;;21.33;75.33;101208.94;5023192;28;20033;-67
2022/09/07 09:26:03;;;;;;;16.98;12.77;;;;;;;21.30;73.35;101212.88;5024672;28;20048;-67
2022/09/07 09:28:28;;;;;;;15.07;11.07;;;;;;;21.31;72.86;101213.75;5026914;28;20045;-67
2022/09/07 09:30:53;;;;;;;13.95;10.55;;;;;;;21.45;73.06;101224.19;5024143;28;20512;-68
2022/09/07 09:33:20;;;;;;;15.65;10.52;;;;;;;21.72;72.05;101211.84;5023980;28;20444;-68
2022/09/07 09:35:48;;;;;;;15.00;10.65;;;;;;;21.78;71.30;101207.53;5025990;28;20131;-68
2022/09/07 09:38:38;;;;;;;13.80;10.15;;;;;;;21.82;71.73;101212.56;5027132;28;20032;-67
2022/09/07 09:41:09;;;;;;;13.43;10.65;;;;;;;21.89;69.03;101213.56;5026802;28;20061;-67
2022/09/07 09:43:52;;;;;;;14.35;9.82;;;;;;;22.07;69.98;101213.34;5025754;28;20479;-70
2022/09/07 09:46:19;;;;;;;16.50;10.73;;;;;;;22.18;68.02;101203.81;5007946;28;20034;-68
2022/09/07 09:48:52;;;;;;;13.15;8.70;;;;;;;22.43;67.84;101207.38;5019600;28;20037;-67
2022/09/07 09:51:19;;;;;;;14.30;8.50;;;;;;;22.51;68.25;101206.47;5024900;28;20087;-69
2022/09/07 09:53:53;;;;;;;15.80;9.88;;;;;;;22.70;68.01;101210.69;5017015;28;20031;-67
2022/09/07 09:56:18;;;;;;;16.30;8.93;;;;;;;22.95;67.50;101209.56;5022979;28;20536;-68
2022/09/07 09:58:46;;;;;;;10.50;8.32;;;;;;;23.32;64.93;101206.00;5031160;28;20128;-69
2022/09/07 10:01:22;;;;;;;12.52;8.00;;;;;;;23.68;65.15;101206.22;5025410;28;20095;-67
2022/09/07 10:03:48;;;;;;;11.55;7.93;;;;;;;23.87;63.44;101209.50;5022862;28;20119;-68
2022/09/07 10:06:16;;;;;;;10.85;7.80;;;;;;;24.20;64.05;101198.88;5025306;28;20029;-69
2022/09/07 10:08:56;;;;;;;11.20;5.85;;;;;;;24.58;63.82;101196.03;5025213;28;20034;-67
2022/09/07 10:11:45;;;;;;;10.05;7.20;;;;;;;24.88;62.74;101188.47;5026264;28;20519;-68
2022/09/07 10:14:18;;;;;;;14.95;5.43;;;;;;;25.00;60.10;101188.81;5030517;28;20665;-68
2022/09/07 10:16:45;;;;;;;10.80;4.75;;;;;;;25.07;57.57;101192.53;5030265;28;20037;-68
2022/09/07 10:19:22;;;;;;;12.82;4.70;;;;;;;25.01;58.69;101183.06;5014427;28;20042;-68
2022/09/07 10:21:57;;;;;;;10.55;4.72;;;;;;;25.22;59.43;101182.22;5022158;28;20057;-67
2022/09/07 10:24:33;;;;;;;9.80;4.65;;;;;;;25.45;58.21;101185.66;5030436;28;20037;-68
2022/09/07 10:26:58;;;;;;;8.85;3.55;;;;;;;25.55;55.29;101176.09;5030654;28;20072;-68
2022/09/07 10:29:28;;;;;;;7.65;3.22;;;;;;;25.63;56.16;101178.72;5016474;28;20894;-67
2022/09/07 10:32:17;;;;;;;15.57;3.50;;;;;;;25.76;57.49;101181.66;5016624;28;20495;-68
2022/09/07 10:34:50;;;;;;;11.20;3.47;;;;;;;26.08;55.03;101182.09;5029223;28;20048;-68
2022/09/07 10:37:32;;;;;;;8.52;3.40;;;;;;;26.19;54.71;101174.00;5014922;28;20046;-68
2022/09/07 10:40:20;;;;;;;11.25;2.97;;;;;;;26.52;54.12;101172.50;5018880;28;20096;-67
2022/09/07 10:43:00;;;;;;;6.97;2.97;;;;;;;26.57;52.94;101183.88;5030425;28;20542;-67
2022/09/07 10:45:42;;;;;;;4.80;2.20;;;;;;;26.41;53.33;101174.78;5044628;28;20037;-68
2022/09/07 10:48:13;;;;;;;8.50;2.40;;;;;;;26.27;51.45;101172.13;5040294;28;20095;-67
2022/09/07 10:50:51;;;;;;;5.30;2.10;;;;;;;26.40;54.03;101172.19;5029290;28;20114;-68
2022/09/07 10:53:38;;;;;;;4.68;1.90;;;;;;;26.36;51.37;101163.38;5029823;28;20045;-67
2022/09/07 10:56:26;;;;;;;6.85;1.77;;;;;;;26.20;54.17;101167.34;5029356;28;20116;-67
2022/09/07 10:59:10;;;;;;;8.10;2.60;;;;;;;26.12;51.90;101161.09;5028523;28;20145;-68
2022/09/07 11:01:45;;;;;;;6.82;2.30;;;;;;;26.27;52.67;101164.63;5029867;28;20037;-68
2022/09/07 11:04:33;;;;;;;8.85;2.72;;;;;;;26.39;52.39;101162.09;5027858;28;20058;-67
2022/09/07 11:07:17;;;;;;;6.63;2.05;;;;;;;26.50;50.42;101163.47;5027974;28;20064;-68
2022/09/07 11:10:04;;;;;;;7.72;2.17;;;;;;;26.53;51.03;101163.91;5028931;28;20568;-67
2022/09/07 11:12:34;;;;;;;6.22;2.10;;;;;;;26.86;51.79;101158.44;5029830;28;20052;-68
2022/09/07 11:15:34;;;;;;;8.38;2.47;;;;;;;27.07;50.70;101153.75;5028986;28;20045;-68
2022/09/07 11:18:10;;;;;;;5.63;1.88;;;;;;;27.44;47.73;101160.72;5010603;28;20061;-67
2022/09/07 11:20:53;;;;;;;6.55;2.22;;;;;;;27.93;50.41;101153.81;5022695;28;20506;-67
2022/09/07 11:23:25;;;;;;;5.32;2.28;;;;;;;28.35;48.46;101145.97;5042006;28;20120;-67
2022/09/07 11:26:06;;;;;;;6.13;2.03;;;;;;;28.40;47.13;101149.84;5048693;28;20037;-68
2022/09/07 11:28:43;;;;;;;3.72;2.10;;;;;;;28.12;46.35;101154.84;5040641;28;20519;-67
2022/09/07 11:31:26;;;;;;;7.78;2.15;;;;;;;28.20;47.42;101146.22;5041773;28;20377;-68
2022/09/07 11:34:09;;;;;;;5.13;1.85;;;;;;;28.18;45.92;101146.44;5031313;28;20081;-67
2022/09/07 11:36:45;;;;;;;7.68;1.92;;;;;;;28.22;45.42;101147.72;5035290;28;20033;-67